createdAt,value
2022-09-24T00:02:38.672Z,7.68
2022-09-24T00:05:24.708Z,7.68
2022-09-24T00:08:10.814Z,8.05
2022-09-24T00:10:57.156Z,5.63
2022-09-24T00:13:43.189Z,4.93
2022-09-24T00:16:33.904Z,6.80
2022-09-24T00:19:20.080Z,8.15
2022-09-24T00:22:06.134Z,8.60
2022-09-24T00:25:10.800Z,7.28
2022-09-24T00:30:44.676Z,6.53
2022-09-24T00:33:32.682Z,7.43
2022-09-24T00:36:20.112Z,5.70
2022-09-24T00:39:06.731Z,9.23
2022-09-24T00:41:52.697Z,6.72
2022-09-24T00:44:44.862Z,10.48
2022-09-24T00:47:38.599Z,11.68
2022-09-24T00:50:34.544Z,8.38
2022-09-24T00:53:29.084Z,7.28
2022-09-24T00:56:19.378Z,10.50
2022-09-24T00:59:08.105Z,11.00
2022-09-24T01:01:57.582Z,9.40
2022-09-24T01:04:44.140Z,9.13
2022-09-24T01:07:30.418Z,9.07
2022-09-24T01:10:48.076Z,13.50
2022-09-24T01:14:03.350Z,12.77
2022-09-24T01:17:11.066Z,13.30
2022-09-24T01:20:34.593Z,11.75
2022-09-24T01:23:58.334Z,6.95
2022-09-24T01:26:57.104Z,11.57
2022-09-24T01:29:50.148Z,10.18
2022-09-24T01:32:51.065Z,12.50
2022-09-24T01:35:56.315Z,7.97
2022-09-24T01:38:44.936Z,11.60
2022-09-24T01:41:33.663Z,8.40
2022-09-24T01:44:20.601Z,9.30
2022-09-24T01:47:08.034Z,6.63
2022-09-24T01:49:54.752Z,8.00
2022-09-24T01:53:13.938Z,9.75
2022-09-24T01:56:11.341Z,9.13
2022-09-24T01:59:27.378Z,11.30
2022-09-24T02:02:27.688Z,11.27
2022-09-24T02:05:25.166Z,9.60
2022-09-24T02:08:43.953Z,9.00
2022-09-24T02:16:39.006Z,16.17
2022-09-24T02:19:58.674Z,14.45
2022-09-24T02:23:13.885Z,9.70
2022-09-24T02:27:13.991Z,11.55
2022-09-24T02:30:03.316Z,9.05
2022-09-24T02:32:50.855Z,9.73
2022-09-24T02:35:40.737Z,9.77
2022-09-24T02:38:27.149Z,13.13
2022-09-24T02:41:14.499Z,7.60
2022-09-24T02:44:00.793Z,9.63
2022-09-24T02:46:47.818Z,11.35
2022-09-24T02:49:34.101Z,12.32
2022-09-24T02:52:21.470Z,16.92
2022-09-24T02:55:07.868Z,18.63
2022-09-24T02:57:54.627Z,15.55
2022-09-24T03:00:40.513Z,16.33
2022-09-24T03:03:26.608Z,16.30
2022-09-24T03:06:15.325Z,21.77
2022-09-24T03:09:03.287Z,19.33
2022-09-24T03:11:50.148Z,17.13
2022-09-24T03:14:36.336Z,18.58
2022-09-24T03:17:22.529Z,21.50
2022-09-24T03:20:08.887Z,21.63
2022-09-24T03:22:55.083Z,25.60
2022-09-24T03:25:40.969Z,21.33
2022-09-24T03:28:27.895Z,25.95
2022-09-24T03:31:14.663Z,22.52
2022-09-24T03:34:00.919Z,23.45
2022-09-24T03:36:47.212Z,31.40
2022-09-24T03:39:33.096Z,21.15
2022-09-24T03:42:18.961Z,23.70
2022-09-24T03:45:05.840Z,24.30
2022-09-24T03:47:51.898Z,22.75
2022-09-24T03:50:38.737Z,17.60
2022-09-24T03:53:24.948Z,16.77
2022-09-24T03:56:11.899Z,19.90
2022-09-24T03:58:57.877Z,15.50
2022-09-24T04:01:44.019Z,17.58
2022-09-24T04:04:30.381Z,15.10
2022-09-24T04:07:16.215Z,17.13
2022-09-24T04:10:02.367Z,14.38
2022-09-24T04:12:48.406Z,16.42
2022-09-24T04:15:34.713Z,19.38
2022-09-24T04:18:21.722Z,15.30
2022-09-24T04:21:08.443Z,18.48
2022-09-24T04:23:54.485Z,14.65
2022-09-24T04:26:40.814Z,15.75
2022-09-24T04:29:26.914Z,15.65
2022-09-24T04:32:12.798Z,17.50
2022-09-24T04:34:58.768Z,17.67
2022-09-24T04:37:45.409Z,16.75
2022-09-24T04:40:32.336Z,17.60
2022-09-24T04:43:19.147Z,17.85
2022-09-24T04:46:06.228Z,18.83
2022-09-24T04:48:53.173Z,13.20
2022-09-24T04:51:39.028Z,15.65
2022-09-24T04:54:25.532Z,12.25
2022-09-24T04:57:11.977Z,13.43
2022-09-24T04:59:58.297Z,14.75
2022-09-24T05:02:45.345Z,15.43
2022-09-24T05:05:35.163Z,16.52
2022-09-24T05:08:21.415Z,14.52
2022-09-24T05:11:07.834Z,14.35
2022-09-24T05:13:53.849Z,12.50
2022-09-24T05:16:40.105Z,16.85
2022-09-24T05:19:25.963Z,15.63
2022-09-24T05:22:12.030Z,17.20
2022-09-24T05:24:57.815Z,13.63
2022-09-24T05:27:48.781Z,17.35
2022-09-24T05:30:34.698Z,17.52
2022-09-24T05:33:20.611Z,14.65
2022-09-24T05:36:06.701Z,15.10
2022-09-24T05:38:53.682Z,11.40
2022-09-24T05:41:40.464Z,11.35
2022-09-24T05:44:26.533Z,11.65
2022-09-24T05:47:13.778Z,13.70
2022-09-24T05:50:00.734Z,12.85
2022-09-24T05:52:46.821Z,13.98
2022-09-24T05:55:33.412Z,13.57
2022-09-24T05:58:20.739Z,13.30
2022-09-24T06:01:07.073Z,17.30
2022-09-24T06:03:53.170Z,15.50
2022-09-24T06:06:38.974Z,15.38
2022-09-24T06:09:24.712Z,10.30
2022-09-24T06:12:10.763Z,12.27
2022-09-24T06:14:56.632Z,11.07
2022-09-24T06:17:42.575Z,15.88
2022-09-24T06:20:29.182Z,13.38
2022-09-24T06:23:18.417Z,13.18
2022-09-24T06:26:07.451Z,11.05
2022-09-24T06:28:53.432Z,12.80
2022-09-24T06:31:40.287Z,12.25
2022-09-24T06:34:26.590Z,17.60
2022-09-24T06:37:12.613Z,15.10
2022-09-24T06:39:58.508Z,11.77
2022-09-24T06:42:44.401Z,13.95
2022-09-24T06:45:30.408Z,13.52
2022-09-24T06:48:17.720Z,15.20
2022-09-24T06:51:09.004Z,12.95
2022-09-24T06:53:55.020Z,14.75
2022-09-24T06:56:41.069Z,14.20
2022-09-24T06:59:28.423Z,10.40
2022-09-24T07:02:14.483Z,14.45
2022-09-24T07:05:01.076Z,18.08
2022-09-24T07:07:47.040Z,14.32
2022-09-24T07:10:33.171Z,13.23
2022-09-24T07:13:21.240Z,14.20
2022-09-24T07:16:07.951Z,18.30
2022-09-24T07:18:53.920Z,15.18
2022-09-24T07:21:39.991Z,18.02
2022-09-24T07:24:25.827Z,14.90
2022-09-24T07:27:12.497Z,13.65
2022-09-24T07:29:58.941Z,17.13
2022-09-24T07:32:44.835Z,13.55
2022-09-24T07:35:31.628Z,17.55
2022-09-24T07:38:17.798Z,15.75
2022-09-24T07:41:04.605Z,14.63
2022-09-24T07:43:50.443Z,12.63
2022-09-24T07:46:36.467Z,17.83
2022-09-24T07:49:23.085Z,18.13
2022-09-24T07:52:11.116Z,14.55
2022-09-24T07:54:56.939Z,14.93
2022-09-24T07:57:47.929Z,18.30
2022-09-24T08:00:34.617Z,13.55
2022-09-24T08:03:20.663Z,15.00
2022-09-24T08:06:07.244Z,14.82
2022-09-24T08:08:53.635Z,14.15
2022-09-24T08:11:39.919Z,21.95
2022-09-24T08:14:26.593Z,12.77
2022-09-24T08:17:12.827Z,13.50
2022-09-24T08:19:58.971Z,17.10
2022-09-24T08:22:47.408Z,19.55
2022-09-24T08:25:33.686Z,17.05
2022-09-24T08:28:19.813Z,15.18
2022-09-24T08:31:09.136Z,17.65
2022-09-24T08:33:55.289Z,16.65
2022-09-24T08:36:43.212Z,14.70
2022-09-24T08:39:29.619Z,21.38
2022-09-24T08:42:34.893Z,18.27
2022-09-24T08:45:40.213Z,17.40
2022-09-24T08:48:31.650Z,15.93
2022-09-24T08:51:21.374Z,18.85
2022-09-24T08:54:13.053Z,16.88
2022-09-24T08:57:02.736Z,12.68
2022-09-24T08:59:52.945Z,19.88
2022-09-24T09:03:01.536Z,15.50
2022-09-24T09:06:03.758Z,15.70
2022-09-24T09:09:09.540Z,14.18
2022-09-24T09:12:03.294Z,14.98
2022-09-24T09:15:03.521Z,19.20
2022-09-24T09:17:56.858Z,16.00
2022-09-24T09:20:45.273Z,11.75
2022-09-24T09:24:02.142Z,16.30
2022-09-24T09:26:55.449Z,15.35
2022-09-24T09:29:45.152Z,11.45
2022-09-24T09:32:39.298Z,10.50
2022-09-24T09:35:34.876Z,8.80
2022-09-24T09:38:20.885Z,12.52
2022-09-24T09:41:29.121Z,12.32
2022-09-24T09:44:27.728Z,14.23
2022-09-24T09:47:45.922Z,14.45
2022-09-24T09:50:45.538Z,13.70
2022-09-24T09:53:32.856Z,8.70
2022-09-24T09:56:24.931Z,10.48
2022-09-24T09:59:11.332Z,9.40
2022-09-24T10:01:57.605Z,8.27
2022-09-24T10:04:45.017Z,8.50
2022-09-24T10:07:34.936Z,9.07
2022-09-24T10:10:24.268Z,6.93
2022-09-24T10:13:13.333Z,12.48
2022-09-24T10:16:05.552Z,7.63
2022-09-24T10:18:51.984Z,7.05
2022-09-24T10:21:38.214Z,8.80
2022-09-24T10:24:26.399Z,10.65
2022-09-24T10:27:14.550Z,9.75
2022-09-24T10:30:21.860Z,5.75
2022-09-24T10:33:09.052Z,7.22
2022-09-24T10:36:07.743Z,4.40
2022-09-24T10:39:14.057Z,7.57
2022-09-24T10:42:00.175Z,8.55
2022-09-24T10:44:52.077Z,7.35
2022-09-24T10:47:57.527Z,7.72
2022-09-24T10:50:58.779Z,9.05
2022-09-24T10:53:55.557Z,6.97
2022-09-24T10:56:46.667Z,4.63
2022-09-24T10:59:57.617Z,6.43
2022-09-24T11:03:10.019Z,3.53
2022-09-24T11:06:09.613Z,5.03
2022-09-24T11:09:09.613Z,9.20
2022-09-24T11:12:23.610Z,4.53
2022-09-24T11:15:19.333Z,6.45
2022-09-24T11:18:30.286Z,3.60
2022-09-24T11:21:32.555Z,4.60
2022-09-24T11:24:21.646Z,6.88
2022-09-24T11:27:34.570Z,4.85
2022-09-24T11:30:48.052Z,3.55
2022-09-24T11:34:16.181Z,3.40
2022-09-24T11:37:11.608Z,3.33
2022-09-24T11:40:35.496Z,9.18
2022-09-24T11:43:32.709Z,3.23
2022-09-24T11:46:22.224Z,4.30
2022-09-24T11:49:36.737Z,2.92
2022-09-24T11:52:34.914Z,5.85
2022-09-24T11:55:44.176Z,6.25
2022-09-24T11:58:35.081Z,3.80
2022-09-24T12:01:26.894Z,4.40
2022-09-24T12:04:18.650Z,2.70
2022-09-24T12:07:15.798Z,4.57
2022-09-24T12:10:16.180Z,4.47
2022-09-24T12:13:24.379Z,5.43
2022-09-24T12:16:25.355Z,5.40
2022-09-24T12:19:24.302Z,4.88
2022-09-24T12:22:12.418Z,3.95
2022-09-24T12:25:00.632Z,4.63
2022-09-24T12:27:47.721Z,3.55
2022-09-24T12:31:11.391Z,4.70
2022-09-24T12:37:10.488Z,4.05
2022-09-24T12:40:17.107Z,4.00
2022-09-24T12:43:13.676Z,4.05
2022-09-24T12:46:03.086Z,2.90
2022-09-24T12:48:50.609Z,3.83
2022-09-24T12:51:39.329Z,1.88
2022-09-24T12:54:30.862Z,3.25
2022-09-24T12:57:25.542Z,3.00
2022-09-24T13:00:35.604Z,4.45
2022-09-24T13:03:34.630Z,3.55
2022-09-24T13:06:34.788Z,2.75
2022-09-24T13:09:25.943Z,4.95
2022-09-24T13:12:19.491Z,4.55
2022-09-24T13:15:10.183Z,1.98
2022-09-24T13:18:11.092Z,3.05
2022-09-24T13:21:05.471Z,4.80
2022-09-24T13:23:52.800Z,2.63
2022-09-24T13:26:39.048Z,2.30
2022-09-24T13:29:26.182Z,3.75
2022-09-24T13:32:19.804Z,3.03
2022-09-24T13:35:18.067Z,10.48
2022-09-24T13:38:22.050Z,2.72
2022-09-24T13:41:32.702Z,2.13
2022-09-24T13:44:35.183Z,5.05
2022-09-24T13:47:38.934Z,7.25
2022-09-24T13:50:32.965Z,4.70
2022-09-24T13:53:48.026Z,4.78
2022-09-24T13:59:21.088Z,1.63
2022-09-24T14:02:28.411Z,4.05
2022-09-24T14:05:19.922Z,4.55
2022-09-24T14:08:15.268Z,4.28
2022-09-24T14:11:09.966Z,2.03
2022-09-24T14:13:57.389Z,2.53
2022-09-24T14:16:43.678Z,4.15
2022-09-24T14:19:29.996Z,3.70
2022-09-24T14:22:22.540Z,4.88
2022-09-24T14:25:13.926Z,4.57
2022-09-24T14:28:03.174Z,4.82
2022-09-24T14:30:56.051Z,4.07
2022-09-24T14:33:42.369Z,2.10
2022-09-24T14:36:29.343Z,4.70
2022-09-24T14:39:15.867Z,4.63
2022-09-24T14:42:10.629Z,4.57
2022-09-24T14:44:58.770Z,2.53
2022-09-24T14:47:45.549Z,6.40
2022-09-24T14:50:37.931Z,3.53
2022-09-24T14:53:33.108Z,4.25
2022-09-24T14:56:20.743Z,2.13
2022-09-24T14:59:15.017Z,4.90
2022-09-24T15:02:22.693Z,6.80
2022-09-24T15:05:09.499Z,2.70
2022-09-24T15:08:34.433Z,2.97
2022-09-24T15:14:25.211Z,3.85
2022-09-24T15:17:33.688Z,5.20
2022-09-24T15:20:22.594Z,3.95
2022-09-24T15:23:08.691Z,2.88
2022-09-24T15:25:54.845Z,2.45
2022-09-24T15:28:44.641Z,3.25
2022-09-24T15:31:31.570Z,2.63
2022-09-24T15:34:20.127Z,2.30
2022-09-24T15:37:12.137Z,3.20
2022-09-24T15:40:06.303Z,1.55
2022-09-24T15:42:52.572Z,1.23
2022-09-24T15:45:38.967Z,3.00
2022-09-24T15:48:25.730Z,2.25
2022-09-24T15:51:21.978Z,3.53
2022-09-24T15:54:09.535Z,2.63
2022-09-24T15:56:56.110Z,3.97
2022-09-24T15:59:42.466Z,3.40
2022-09-24T16:02:33.919Z,2.60
2022-09-24T16:05:20.760Z,3.17
2022-09-24T16:08:07.260Z,4.68
2022-09-24T16:10:53.701Z,4.15
2022-09-24T16:13:39.948Z,2.63
2022-09-24T16:16:25.806Z,2.72
2022-09-24T16:19:13.489Z,2.78
2022-09-24T16:22:01.055Z,3.05
2022-09-24T16:24:47.276Z,2.15
2022-09-24T16:27:35.228Z,3.58
2022-09-24T16:30:21.567Z,1.42
2022-09-24T16:33:11.379Z,2.05
2022-09-24T16:36:03.939Z,2.20
2022-09-24T16:38:50.175Z,1.58
2022-09-24T16:41:37.817Z,1.17
2022-09-24T16:44:24.246Z,1.20
2022-09-24T16:47:10.120Z,4.68
2022-09-24T16:49:56.333Z,1.25
2022-09-24T16:52:44.738Z,2.67
2022-09-24T16:55:31.327Z,5.15
2022-09-24T16:58:17.206Z,6.82
2022-09-24T17:01:08.066Z,11.95
2022-09-24T17:03:55.995Z,11.45
2022-09-24T17:06:45.143Z,35.45
2022-09-24T17:09:49.862Z,7.60
2022-09-24T17:12:35.873Z,2.92
2022-09-24T17:15:21.823Z,2.13
2022-09-24T17:18:08.020Z,2.22
2022-09-24T17:21:08.445Z,2.33
2022-09-24T17:23:54.566Z,1.75
2022-09-24T17:26:40.818Z,2.40
2022-09-24T17:29:31.739Z,2.47
2022-09-24T17:32:18.193Z,3.58
2022-09-24T17:35:04.714Z,3.20
2022-09-24T17:37:50.921Z,3.17
2022-09-24T17:40:38.381Z,5.43
2022-09-24T17:43:25.637Z,3.83
2022-09-24T17:46:14.993Z,4.55
2022-09-24T17:49:02.001Z,3.38
2022-09-24T17:51:49.438Z,2.97
2022-09-24T17:54:39.338Z,3.53
2022-09-24T17:57:25.507Z,3.13
2022-09-24T18:00:12.155Z,3.38
2022-09-24T18:02:57.955Z,4.03
2022-09-24T18:05:45.073Z,2.90
2022-09-24T18:08:37.383Z,4.60
2022-09-24T18:11:26.125Z,2.13
2022-09-24T18:14:15.152Z,2.42
2022-09-24T18:17:01.090Z,2.42
2022-09-24T18:19:46.953Z,3.65
2022-09-24T18:22:32.921Z,6.43
2022-09-24T18:25:18.670Z,2.47
2022-09-24T18:28:04.723Z,3.78
2022-09-24T18:31:02.727Z,4.65
2022-09-24T18:33:50.442Z,8.57
2022-09-24T18:36:38.689Z,3.00
2022-09-24T18:39:25.743Z,3.58
2022-09-24T18:42:12.266Z,4.43
2022-09-24T18:44:58.490Z,4.20
2022-09-24T18:47:44.600Z,4.20
2022-09-24T18:50:31.424Z,4.93
2022-09-24T18:53:17.716Z,5.47
2022-09-24T18:56:06.690Z,3.92
2022-09-24T18:59:18.400Z,2.40
2022-09-24T19:02:05.265Z,3.75
2022-09-24T19:04:50.952Z,4.45
2022-09-24T19:07:38.087Z,2.97
2022-09-24T19:10:24.076Z,3.10
2022-09-24T19:13:10.998Z,3.35
2022-09-24T19:15:56.947Z,3.83
2022-09-24T19:18:43.320Z,7.63
2022-09-24T19:21:30.355Z,2.13
2022-09-24T19:24:16.876Z,5.38
2022-09-24T19:27:02.932Z,4.10
2022-09-24T19:29:50.289Z,5.00
2022-09-24T19:32:40.140Z,3.20
2022-09-24T19:35:26.999Z,3.13
2022-09-24T19:38:16.620Z,2.80
2022-09-24T19:41:22.768Z,3.90
2022-09-24T19:44:09.717Z,5.07
2022-09-24T19:46:55.941Z,4.55
2022-09-24T19:49:42.048Z,2.80
2022-09-24T19:52:28.109Z,4.80
2022-09-24T19:55:14.248Z,5.80
2022-09-24T19:58:01.499Z,2.30
2022-09-24T20:00:47.164Z,5.75
2022-09-24T20:03:35.061Z,4.55
2022-09-24T20:06:23.803Z,3.83
2022-09-24T20:09:09.840Z,4.93
2022-09-24T20:11:56.769Z,3.03
2022-09-24T20:14:45.234Z,8.45
2022-09-24T20:17:31.830Z,5.40
2022-09-24T20:20:18.156Z,5.00
2022-09-24T20:23:04.069Z,4.13
2022-09-24T20:26:10.390Z,5.47
2022-09-24T20:28:57.189Z,3.58
2022-09-24T20:31:53.647Z,3.72
2022-09-24T20:34:40.157Z,2.95
2022-09-24T20:37:26.105Z,4.60
2022-09-24T20:40:12.370Z,5.55
2022-09-24T20:42:59.435Z,4.35
2022-09-24T20:45:48.600Z,3.42
2022-09-24T20:48:35.031Z,5.72
2022-09-24T20:51:22.178Z,3.83
2022-09-24T20:54:08.685Z,4.50
2022-09-24T20:56:54.919Z,3.20
2022-09-24T20:59:40.888Z,6.18
2022-09-24T21:02:26.855Z,5.40
2022-09-24T21:05:16.435Z,2.70
2022-09-24T21:08:08.542Z,5.80
2022-09-24T21:11:20.136Z,4.47
2022-09-24T21:14:11.011Z,3.58
2022-09-24T21:16:57.786Z,6.28
2022-09-24T21:19:43.828Z,5.20
2022-09-24T21:22:30.385Z,6.72
2022-09-24T21:25:36.300Z,5.60
2022-09-24T21:28:23.121Z,3.35
2022-09-24T21:31:09.673Z,4.28
2022-09-24T21:33:56.356Z,3.55
2022-09-24T21:36:45.362Z,3.42
2022-09-24T21:39:31.649Z,4.65
2022-09-24T21:42:19.683Z,4.18
2022-09-24T21:45:06.931Z,4.35
2022-09-24T21:47:53.121Z,5.45
2022-09-24T21:50:40.413Z,4.65
2022-09-24T21:53:26.921Z,7.00
2022-09-24T21:56:13.412Z,3.97
2022-09-24T21:59:00.067Z,3.83
2022-09-24T22:01:46.437Z,3.33
2022-09-24T22:04:39.820Z,5.47
2022-09-24T22:07:25.969Z,5.07
2022-09-24T22:10:12.484Z,6.72
2022-09-24T22:12:58.893Z,3.33
2022-09-24T22:15:46.524Z,7.80
2022-09-24T22:18:34.026Z,3.97
2022-09-24T22:21:20.484Z,7.28
2022-09-24T22:24:06.772Z,3.05
2022-09-24T22:26:54.266Z,4.10
2022-09-24T22:29:40.897Z,4.38
2022-09-24T22:32:27.189Z,3.25
2022-09-24T22:35:31.691Z,5.53
2022-09-24T22:41:06.800Z,6.78
2022-09-24T22:43:52.814Z,4.85
2022-09-24T22:46:41.356Z,5.50
2022-09-24T22:49:27.513Z,4.95
2022-09-24T22:52:13.437Z,2.25
2022-09-24T22:54:59.622Z,2.53
2022-09-24T22:57:45.960Z,3.70
2022-09-24T23:00:34.042Z,3.30
2022-09-24T23:03:19.945Z,3.47
2022-09-24T23:06:09.293Z,3.13
2022-09-24T23:08:56.189Z,4.20
2022-09-24T23:11:45.052Z,3.55
2022-09-24T23:14:31.130Z,8.85
2022-09-24T23:17:17.189Z,2.92
2022-09-24T23:20:05.874Z,3.42
2022-09-24T23:22:52.197Z,4.97
2022-09-24T23:25:38.125Z,6.32
2022-09-24T23:28:24.056Z,5.18
2022-09-24T23:31:13.092Z,3.83
2022-09-24T23:34:02.593Z,5.43
2022-09-24T23:36:51.238Z,5.30
2022-09-24T23:39:41.817Z,5.38
2022-09-24T23:42:27.922Z,2.88
2022-09-24T23:45:14.931Z,5.68
2022-09-24T23:48:01.195Z,4.65
2022-09-24T23:50:47.875Z,3.45
2022-09-24T23:53:34.779Z,6.60
2022-09-24T23:56:23.346Z,5.38
2022-09-24T23:59:09.561Z,10.45
